NorthWeedRWIS Atmospheric Data: 07/12/2019 Summary  Detailed Graphs  Station List

  Temperature     Wind Precipitation Visibility
Timestamp Air Wet
Bulb
Dew-
point
24-hr
Max
24-hr
Min
Relative
Humidity
Atmospheric
Pressure
Avg
Speed
Avg
Dir
Spot
Speed
Spot
Dir
Max
Speed
Max
Dir
  Rate Situation Start End 1 hr 3 hr 6 hr 12 hr 24 hr   Situation
Date Time °F °F °F °F °F % in Hg mph ° mph ° mph ° Y/N in/hr text Date Time Date Time in in in in in mi text
07/12/2019 12:03 AM 68.54 58.64 51.80 88.34 52.52 55.0 Not Reported 1.12 SE 0.45 SE 2.91 SE No 0.000 No Precipitation 05/28/2019 11:08 AM 05/28/2019 11:15 AM 0.000 0.000 0.000 0.000 0.000 Not Reported Not Reported
07/12/2019 12:18 AM 68.72 58.46 51.26 88.34 52.52 53.0 Not Reported 1.34 NE 1.57 NE 3.36 N No 0.000 No Precipitation 05/28/2019 11:08 AM 05/28/2019 11:15 AM 0.000 0.000 0.000 0.000 0.000 Not Reported Not Reported
07/12/2019 12:33 AM 69.62 58.82 51.26 88.34 52.52 51.0 Not Reported 1.34 NE 1.79 E 3.13 NW No 0.000 No Precipitation 05/28/2019 11:08 AM 05/28/2019 11:15 AM 0.000 0.000 0.000 0.000 0.000 Not Reported Not Reported
07/12/2019 12:48 AM 66.56 57.56 51.44 88.34 52.52 58.0 Not Reported 1.12 S 0.89 S 3.80 SE No 0.000 No Precipitation 05/28/2019 11:08 AM 05/28/2019 11:15 AM 0.000 0.000 0.000 0.000 0.000 Not Reported Not Reported
07/12/2019 01:03 AM 64.76 56.84 51.26 88.34 52.52 61.0 Not Reported 2.46 SE 2.68 SE 2.24 SE No 0.000 No Precipitation 05/28/2019 11:08 AM 05/28/2019 11:15 AM 0.000 0.000 0.000 0.000 0.000 Not Reported Not Reported
07/12/2019 01:18 AM 63.68 56.48 51.26 88.34 52.52 63.0 Not Reported 2.68 SE 2.91 SE 3.36 SE No 0.000 No Precipitation 05/28/2019 11:08 AM 05/28/2019 11:15 AM 0.000 0.000 0.000 0.000 0.000 Not Reported Not Reported
07/12/2019 01:33 AM 63.32 56.48 51.62 88.34 52.52 65.0 Not Reported 2.68 SE 3.13 SE 3.58 SE No 0.000 No Precipitation 05/28/2019 11:08 AM 05/28/2019 11:15 AM 0.000 0.000 0.000 0.000 0.000 Not Reported Not Reported
07/12/2019 01:48 AM 62.06 55.76 51.26 88.34 52.52 67.0 Not Reported 2.91 SE 2.68 SE 3.36 SE No 0.000 No Precipitation 05/28/2019 11:08 AM 05/28/2019 11:15 AM 0.000 0.000 0.000 0.000 0.000 Not Reported Not Reported
07/12/2019 02:03 AM 60.98 55.22 51.08 88.34 52.52 69.0 Not Reported 2.91 SE 3.36 SE 3.58 SE No 0.000 No Precipitation 05/28/2019 11:08 AM 05/28/2019 11:15 AM 0.000 0.000 0.000 0.000 0.000 Not Reported Not Reported
07/12/2019 02:18 AM 60.98 55.40 51.26 88.34 52.52 70.0 Not Reported 2.91 SE 3.13 SE 3.58 SE No 0.000 No Precipitation 05/28/2019 11:08 AM 05/28/2019 11:15 AM 0.000 0.000 0.000 0.000 0.000 Not Reported Not Reported
07/12/2019 02:33 AM 59.90 54.68 50.90 88.34 52.52 71.0 Not Reported 2.68 SE 3.13 SE 3.13 SE No 0.000 No Precipitation 05/28/2019 11:08 AM 05/28/2019 11:15 AM 0.000 0.000 0.000 0.000 0.000 Not Reported Not Reported
07/12/2019 02:48 AM 59.54 54.50 50.54 88.34 52.52 72.0 Not Reported 3.36 SE 3.36 SE 3.36 SE No 0.000 No Precipitation 05/28/2019 11:08 AM 05/28/2019 11:15 AM 0.000 0.000 0.000 0.000 0.000 Not Reported Not Reported
07/12/2019 03:03 AM 59.00 54.32 50.54 88.34 52.52 73.0 Not Reported 3.80 SE 3.58 SE 4.03 SE No 0.000 No Precipitation 05/28/2019 11:08 AM 05/28/2019 11:15 AM 0.000 0.000 0.000 0.000 0.000 Not Reported Not Reported
07/12/2019 03:18 AM 58.46 53.96 50.54 88.34 52.52 74.0 Not Reported 3.36 SE 3.13 SE 3.80 SE No 0.000 No Precipitation 05/28/2019 11:08 AM 05/28/2019 11:15 AM 0.000 0.000 0.000 0.000 0.000 Not Reported Not Reported
07/12/2019 03:33 AM 57.92 53.60 50.18 88.34 52.52 75.0 Not Reported 3.58 SE 3.58 SE 4.03 SE No 0.000 No Precipitation 05/28/2019 11:08 AM 05/28/2019 11:15 AM 0.000 0.000 0.000 0.000 0.000 Not Reported Not Reported
07/12/2019 03:48 AM 57.56 53.24 50.00 88.34 52.52 75.0 Not Reported 3.36 SE 3.58 SE 3.80 SE No 0.000 No Precipitation 05/28/2019 11:08 AM 05/28/2019 11:15 AM 0.000 0.000 0.000 0.000 0.000 Not Reported Not Reported
07/12/2019 04:03 AM 56.84 52.88 49.64 88.34 52.52 76.0 Not Reported 3.58 SE 3.36 SE 4.03 SE No 0.000 No Precipitation 05/28/2019 11:08 AM 05/28/2019 11:15 AM 0.000 0.000 0.000 0.000 0.000 Not Reported Not Reported
07/12/2019 04:18 AM 56.48 52.70 49.64 88.34 52.52 77.0 Not Reported 3.80 SE 3.80 SE 3.58 SE No 0.000 No Precipitation 05/28/2019 11:08 AM 05/28/2019 11:15 AM 0.000 0.000 0.000 0.000 0.000 Not Reported Not Reported
07/12/2019 04:33 AM 56.30 52.52 49.46 88.34 52.52 77.0 Not Reported 3.13 SE 3.13 SE 3.80 SE No 0.000 No Precipitation 05/28/2019 11:08 AM 05/28/2019 11:15 AM 0.000 0.000 0.000 0.000 0.000 Not Reported Not Reported
07/12/2019 04:48 AM 56.30 52.52 49.46 88.34 52.52 78.0 Not Reported 3.36 SE 2.91 SE 3.58 SE No 0.000 No Precipitation 05/28/2019 11:08 AM 05/28/2019 11:15 AM 0.000 0.000 0.000 0.000 0.000 Not Reported Not Reported
07/12/2019 05:03 AM 55.58 51.98 49.10 88.34 52.52 78.0 Not Reported 3.58 SE 3.58 SE 3.80 SE No 0.000 No Precipitation 05/28/2019 11:08 AM 05/28/2019 11:15 AM 0.000 0.000 0.000 0.000 0.000 Not Reported Not Reported
07/12/2019 05:18 AM 55.22 51.98 49.10 88.34 52.52 79.0 Not Reported 3.58 SE 4.03 SE 3.80 SE No 0.000 No Precipitation 05/28/2019 11:08 AM 05/28/2019 11:15 AM 0.000 0.000 0.000 0.000 0.000 Not Reported Not Reported
07/12/2019 05:33 AM 55.40 51.98 49.28 88.34 52.52 79.0 Not Reported 3.58 SE 3.58 SE 3.80 SE No 0.000 No Precipitation 05/28/2019 11:08 AM 05/28/2019 11:15 AM 0.000 0.000 0.000 0.000 0.000 Not Reported Not Reported
07/12/2019 05:48 AM 55.04 51.80 49.28 88.34 52.52 80.0 Not Reported 3.80 SE 3.58 SE 3.58 SE No 0.000 No Precipitation 05/28/2019 11:08 AM 05/28/2019 11:15 AM 0.000 0.000 0.000 0.000 0.000 Not Reported Not Reported
07/12/2019 06:03 AM 54.68 51.62 49.10 88.34 52.52 81.0 Not Reported 4.03 SE 4.03 SE 4.25 SE No 0.000 No Precipitation 05/28/2019 11:08 AM 05/28/2019 11:15 AM 0.000 0.000 0.000 0.000 0.000 Not Reported Not Reported
07/12/2019 06:18 AM 54.68 51.62 49.10 88.34 52.52 81.0 Not Reported 3.80 SE 3.80 SE 4.25 SE No 0.000 No Precipitation 05/28/2019 11:08 AM 05/28/2019 11:15 AM 0.000 0.000 0.000 0.000 0.000 Not Reported Not Reported
07/12/2019 06:33 AM 54.32 51.26 48.92 88.34 52.52 81.0 Not Reported 3.58 SE 3.36 SE 4.47 SE No 0.000 No Precipitation 05/28/2019 11:08 AM 05/28/2019 11:15 AM 0.000 0.000 0.000 0.000 0.000 Not Reported Not Reported
07/12/2019 06:48 AM 54.50 51.44 49.10 88.34 52.52 81.0 Not Reported 4.03 SE 3.80 SE 4.03 SE No 0.000 No Precipitation 05/28/2019 11:08 AM 05/28/2019 11:15 AM 0.000 0.000 0.000 0.000 0.000 Not Reported Not Reported
07/12/2019 07:03 AM 54.50 51.44 49.10 88.34 52.52 82.0 Not Reported 3.36 SE 2.91 SE 4.25 SE No 0.000 No Precipitation 05/28/2019 11:08 AM 05/28/2019 11:15 AM 0.000 0.000 0.000 0.000 0.000 Not Reported Not Reported
07/12/2019 07:18 AM 54.68 51.62 49.28 88.34 52.88 81.0 Not Reported 3.80 SE 3.80 SE 3.36 SE No 0.000 No Precipitation 05/28/2019 11:08 AM 05/28/2019 11:15 AM 0.000 0.000 0.000 0.000 0.000 Not Reported Not Reported
07/12/2019 07:33 AM 56.12 52.70 50.18 88.34 53.96 80.0 Not Reported 4.03 SE 4.70 SE 4.03 SE No 0.000 No Precipitation 05/28/2019 11:08 AM 05/28/2019 11:15 AM 0.000 0.000 0.000 0.000 0.000 Not Reported Not Reported
07/12/2019 07:48 AM 56.66 53.06 50.36 88.34 53.96 79.0 Not Reported 4.03 SE 3.80 SE 4.92 SE No 0.000 No Precipitation 05/28/2019 11:08 AM 05/28/2019 11:15 AM 0.000 0.000 0.000 0.000 0.000 Not Reported Not Reported
07/12/2019 08:03 AM 58.28 53.96 50.72 88.34 53.96 75.0 Not Reported 4.03 SE 3.36 SE 4.70 SE No 0.000 No Precipitation 05/28/2019 11:08 AM 05/28/2019 11:15 AM 0.000 0.000 0.000 0.000 0.000 Not Reported Not Reported
07/12/2019 08:18 AM 59.54 54.86 51.44 88.34 53.96 74.0 Not Reported 3.36 SE 2.91 SE 4.47 SE No 0.000 No Precipitation 05/28/2019 11:08 AM 05/28/2019 11:15 AM 0.000 0.000 0.000 0.000 0.000 Not Reported Not Reported
07/12/2019 08:33 AM 61.88 56.30 52.16 88.34 53.96 70.0 Not Reported 2.91 SE 2.24 SE 4.47 SE No 0.000 No Precipitation 05/28/2019 11:08 AM 05/28/2019 11:15 AM 0.000 0.000 0.000 0.000 0.000 Not Reported Not Reported
07/12/2019 08:48 AM 63.68 57.20 52.70 88.34 53.96 67.0 Not Reported 0.67 SE 0.00 S 3.36 SE No 0.000 No Precipitation 05/28/2019 11:08 AM 05/28/2019 11:15 AM 0.000 0.000 0.000 0.000 0.000 Not Reported Not Reported
07/12/2019 09:03 AM 64.76 58.10 53.78 88.34 53.96 67.0 Not Reported 1.12 NW 0.67 NW 1.79 NW No 0.000 No Precipitation 05/28/2019 11:08 AM 05/28/2019 11:15 AM 0.000 0.000 0.000 0.000 0.000 Not Reported Not Reported
07/12/2019 09:18 AM 65.48 59.00 54.68 88.34 53.96 68.0 Not Reported 0.89 N 1.34 N 1.79 NW No 0.000 No Precipitation 05/28/2019 11:08 AM 05/28/2019 11:15 AM 0.000 0.000 0.000 0.000 0.000 Not Reported Not Reported
07/12/2019 09:33 AM 66.38 59.36 54.50 88.34 53.96 65.0 Not Reported 0.89 NW 1.79 NW 2.91 NW No 0.000 No Precipitation 05/28/2019 11:08 AM 05/28/2019 11:15 AM 0.000 0.000 0.000 0.000 0.000 Not Reported Not Reported
07/12/2019 09:48 AM 67.10 59.18 54.14 88.34 53.96 63.0 Not Reported 1.79 NW 2.01 W 3.80 NW No 0.000 No Precipitation 05/28/2019 11:08 AM 05/28/2019 11:15 AM 0.000 0.000 0.000 0.000 0.000 Not Reported Not Reported
07/12/2019 10:03 AM 67.82 60.26 55.40 88.34 53.96 64.0 Not Reported 1.79 N 0.45 NW 3.13 NW No 0.000 No Precipitation 05/28/2019 11:08 AM 05/28/2019 11:15 AM 0.000 0.000 0.000 0.000 0.000 Not Reported Not Reported
07/12/2019 10:18 AM 69.26 60.44 54.68 88.34 53.96 59.0 Not Reported 0.67 N 0.00 NW 3.58 NW No 0.000 No Precipitation 05/28/2019 11:08 AM 05/28/2019 11:15 AM 0.000 0.000 0.000 0.000 0.000 Not Reported Not Reported
07/12/2019 10:33 AM 70.88 60.80 54.32 88.34 53.96 55.0 Not Reported 0.89 W 1.57 NW 3.80 W No 0.000 No Precipitation 05/28/2019 11:08 AM 05/28/2019 11:15 AM 0.000 0.000 0.000 0.000 0.000 Not Reported Not Reported
07/12/2019 10:48 AM 71.78 62.24 56.30 88.34 53.96 58.0 Not Reported 1.79 NW 1.12 NW 1.79 S No 0.000 No Precipitation 05/28/2019 11:08 AM 05/28/2019 11:15 AM 0.000 0.000 0.000 0.000 0.000 Not Reported Not Reported
07/12/2019 11:03 AM 73.58 62.78 56.12 88.34 53.96 54.0 Not Reported 1.79 N 0.00 N 4.03 N No 0.000 No Precipitation 05/28/2019 11:08 AM 05/28/2019 11:15 AM 0.000 0.000 0.000 0.000 0.000 Not Reported Not Reported
07/12/2019 11:18 AM 73.76 62.24 55.04 88.34 53.96 52.0 Not Reported 4.47 NW 5.14 NW 4.47 NW No 0.000 No Precipitation 05/28/2019 11:08 AM 05/28/2019 11:15 AM 0.000 0.000 0.000 0.000 0.000 Not Reported Not Reported
07/12/2019 11:33 AM 74.84 62.78 55.40 88.34 53.96 50.0 Not Reported 3.13 NW 0.89 NW 3.58 W No 0.000 No Precipitation 05/28/2019 11:08 AM 05/28/2019 11:15 AM 0.000 0.000 0.000 0.000 0.000 Not Reported Not Reported
07/12/2019 11:48 AM 75.92 63.50 55.94 88.34 53.96 49.0 Not Reported 3.13 NW 1.57 NW 6.04 NW No 0.000 No Precipitation 05/28/2019 11:08 AM 05/28/2019 11:15 AM 0.000 0.000 0.000 0.000 0.000 Not Reported Not Reported
07/12/2019 12:03 PM 76.82 63.86 55.94 88.34 53.96 48.0 Not Reported 1.34 W 3.13 NW 5.14 SW No 0.000 No Precipitation 05/28/2019 11:08 AM 05/28/2019 11:15 AM 0.000 0.000 0.000 0.000 0.000 Not Reported Not Reported
07/12/2019 12:18 PM 77.72 63.86 55.40 88.34 53.96 46.0 Not Reported 1.79 N 1.57 NE 6.04 NW No 0.000 No Precipitation 05/28/2019 11:08 AM 05/28/2019 11:15 AM 0.000 0.000 0.000 0.000 0.000 Not Reported Not Reported
07/12/2019 12:33 PM 77.90 63.68 54.86 88.34 53.96 45.0 Not Reported 3.13 W 0.67 W 4.70 W No 0.000 No Precipitation 05/28/2019 11:08 AM 05/28/2019 11:15 AM 0.000 0.000 0.000 0.000 0.000 Not Reported Not Reported
07/12/2019 12:48 PM 79.88 65.30 56.66 88.34 53.96 45.0 Not Reported 3.13 NW 2.24 SE 4.70 NW No 0.000 No Precipitation 05/28/2019 11:08 AM 05/28/2019 11:15 AM 0.000 0.000 0.000 0.000 0.000 Not Reported Not Reported
07/12/2019 01:03 PM 82.94 66.20 56.66 88.34 53.96 40.0 Not Reported 1.79 N 2.91 NE 3.80 N No 0.000 No Precipitation 05/28/2019 11:08 AM 05/28/2019 11:15 AM 0.000 0.000 0.000 0.000 0.000 Not Reported Not Reported
07/12/2019 01:18 PM 86.72 68.00 57.56 88.34 53.96 37.0 Not Reported 2.46 NE 1.57 N 3.80 N No 0.000 No Precipitation 05/28/2019 11:08 AM 05/28/2019 11:15 AM 0.000 0.000 0.000 0.000 0.000 Not Reported Not Reported
07/12/2019 01:33 PM 83.66 65.66 55.04 88.34 53.96 37.0 Not Reported 3.80 NW 2.46 N 4.47 SW No 0.000 No Precipitation 05/28/2019 11:08 AM 05/28/2019 11:15 AM 0.000 0.000 0.000 0.000 0.000 Not Reported Not Reported
07/12/2019 01:48 PM 85.64 64.76 51.80 88.34 53.96 31.0 Not Reported 4.47 S 2.24 S 7.61 SW No 0.000 No Precipitation 05/28/2019 11:08 AM 05/28/2019 11:15 AM 0.000 0.000 0.000 0.000 0.000 Not Reported Not Reported
07/12/2019 02:03 PM 86.18 65.12 51.80 88.34 53.96 30.0 Not Reported 7.38 SE 10.07 SE 12.08 SE No 0.000 No Precipitation 05/28/2019 11:08 AM 05/28/2019 11:15 AM 0.000 0.000 0.000 0.000 0.000 Not Reported Not Reported
07/12/2019 02:18 PM 85.82 65.30 52.52 88.34 53.96 31.0 Not Reported 2.46 SE 1.57 NE 11.18 SE No 0.000 No Precipitation 05/28/2019 11:08 AM 05/28/2019 11:15 AM 0.000 0.000 0.000 0.000 0.000 Not Reported Not Reported
07/12/2019 02:33 PM 87.08 66.02 53.42 88.34 53.96 31.0 Not Reported 7.16 SE 6.49 SE 8.50 S No 0.000 No Precipitation 05/28/2019 11:08 AM 05/28/2019 11:15 AM 0.000 0.000 0.000 0.000 0.000 Not Reported Not Reported
07/12/2019 02:48 PM 87.08 65.84 52.88 88.34 53.96 30.0 Not Reported 3.13 S 3.58 SW 14.09 SE No 0.000 No Precipitation 05/28/2019 11:08 AM 05/28/2019 11:15 AM 0.000 0.000 0.000 0.000 0.000 Not Reported Not Reported
07/12/2019 03:03 PM 86.54 65.48 52.34 88.34 53.96 30.0 Not Reported 4.03 SE 4.47 SE 12.53 SE No 0.000 No Precipitation 05/28/2019 11:08 AM 05/28/2019 11:15 AM 0.000 0.000 0.000 0.000 0.000 Not Reported Not Reported
07/12/2019 03:18 PM 88.70 66.20 52.34 88.70 53.96 28.0 Not Reported 4.47 SE 3.58 S 12.75 SE No 0.000 No Precipitation 05/28/2019 11:08 AM 05/28/2019 11:15 AM 0.000 0.000 0.000 0.000 0.000 Not Reported Not Reported
07/12/2019 03:33 PM 87.62 65.66 51.98 89.06 53.96 29.0 Not Reported 8.50 SE 7.83 SE 9.40 S No 0.000 No Precipitation 05/28/2019 11:08 AM 05/28/2019 11:15 AM 0.000 0.000 0.000 0.000 0.000 Not Reported Not Reported
07/12/2019 03:48 PM 89.60 66.92 53.42 89.60 53.96 29.0 Not Reported 4.92 E 1.79 SE 11.63 SE No 0.000 No Precipitation 05/28/2019 11:08 AM 05/28/2019 11:15 AM 0.000 0.000 0.000 0.000 0.000 Not Reported Not Reported
07/12/2019 04:03 PM 88.52 65.66 51.44 90.68 53.96 28.0 Not Reported 5.82 S 1.79 SW 7.16 SE No 0.000 No Precipitation 05/28/2019 11:08 AM 05/28/2019 11:15 AM 0.000 0.000 0.000 0.000 0.000 Not Reported Not Reported
07/12/2019 04:18 PM 90.14 66.02 51.08 91.04 53.96 26.0 Not Reported 4.47 SE 4.70 SE 9.62 S No 0.000 No Precipitation 05/28/2019 11:08 AM 05/28/2019 11:15 AM 0.000 0.000 0.000 0.000 0.000 Not Reported Not Reported
07/12/2019 04:33 PM 90.32 65.84 50.36 91.04 53.96 25.0 Not Reported 5.82 SE 4.47 E 8.05 SE No 0.000 No Precipitation 05/28/2019 11:08 AM 05/28/2019 11:15 AM 0.000 0.000 0.000 0.000 0.000 Not Reported Not Reported
07/12/2019 04:48 PM 88.52 65.30 50.54 91.04 53.96 27.0 Not Reported 6.26 SE 7.16 SE 12.97 SE No 0.000 No Precipitation 05/28/2019 11:08 AM 05/28/2019 11:15 AM 0.000 0.000 0.000 0.000 0.000 Not Reported Not Reported
07/12/2019 05:03 PM 89.78 66.20 51.62 91.04 53.96 27.0 Not Reported 8.28 SE 6.49 SE 9.17 SE No 0.000 No Precipitation 05/28/2019 11:08 AM 05/28/2019 11:15 AM 0.000 0.000 0.000 0.000 0.000 Not Reported Not Reported
07/12/2019 05:18 PM 89.42 65.66 50.72 91.04 53.96 26.0 Not Reported 6.93 SE 7.61 SE 10.29 SE No 0.000 No Precipitation 05/28/2019 11:08 AM 05/28/2019 11:15 AM 0.000 0.000 0.000 0.000 0.000 Not Reported Not Reported
07/12/2019 05:33 PM 89.96 66.20 51.62 91.04 53.96 27.0 Not Reported 4.92 SE 9.17 SE 10.29 SE No 0.000 No Precipitation 05/28/2019 11:08 AM 05/28/2019 11:15 AM 0.000 0.000 0.000 0.000 0.000 Not Reported Not Reported
07/12/2019 05:48 PM 88.34 65.66 51.62 91.04 53.96 28.0 Not Reported 6.26 SE 7.83 SE 9.62 SE No 0.000 No Precipitation 05/28/2019 11:08 AM 05/28/2019 11:15 AM 0.000 0.000 0.000 0.000 0.000 Not Reported Not Reported
07/12/2019 06:03 PM 86.54 65.30 51.98 91.04 53.96 30.0 Not Reported 4.47 SE 6.49 SE 7.38 SE No 0.000 No Precipitation 05/28/2019 11:08 AM 05/28/2019 11:15 AM 0.000 0.000 0.000 0.000 0.000 Not Reported Not Reported
07/12/2019 06:18 PM 86.00 65.48 52.88 91.04 53.96 32.0 Not Reported 4.25 SE 3.13 E 9.17 S No 0.000 No Precipitation 05/28/2019 11:08 AM 05/28/2019 11:15 AM 0.000 0.000 0.000 0.000 0.000 Not Reported Not Reported
07/12/2019 06:33 PM 85.10 65.30 53.24 91.04 53.96 33.0 Not Reported 1.79 S 2.01 S 7.16 SE No 0.000 No Precipitation 05/28/2019 11:08 AM 05/28/2019 11:15 AM 0.000 0.000 0.000 0.000 0.000 Not Reported Not Reported
07/12/2019 06:48 PM 86.72 66.38 54.32 91.04 53.96 33.0 Not Reported 2.68 S 2.24 S 2.68 S No 0.000 No Precipitation 05/28/2019 11:08 AM 05/28/2019 11:15 AM 0.000 0.000 0.000 0.000 0.000 Not Reported Not Reported
07/12/2019 07:03 PM 86.00 65.84 53.60 91.04 53.96 33.0 Not Reported 2.91 SE 1.57 S 5.37 S No 0.000 No Precipitation 05/28/2019 11:08 AM 05/28/2019 11:15 AM 0.000 0.000 0.000 0.000 0.000 Not Reported Not Reported
07/12/2019 07:18 PM 85.46 66.20 54.68 91.04 53.96 35.0 Not Reported 1.79 SE 1.79 SE 4.03 S No 0.000 No Precipitation 05/28/2019 11:08 AM 05/28/2019 11:15 AM 0.000 0.000 0.000 0.000 0.000 Not Reported Not Reported
07/12/2019 07:33 PM 81.32 65.84 57.02 91.04 53.96 43.0 Not Reported 2.01 NW 1.12 N 2.46 SW No 0.000 No Precipitation 05/28/2019 11:08 AM 05/28/2019 11:15 AM 0.000 0.000 0.000 0.000 0.000 Not Reported Not Reported
07/12/2019 07:48 PM 82.40 64.58 53.60 91.04 53.96 37.0 Not Reported 0.67 NW 2.24 NW 2.46 NW No 0.000 No Precipitation 05/28/2019 11:08 AM 05/28/2019 11:15 AM 0.000 0.000 0.000 0.000 0.000 Not Reported Not Reported
07/12/2019 08:03 PM 82.22 62.96 50.36 91.04 53.96 33.0 Not Reported 1.57 NE 0.00 E 4.03 NE No 0.000 No Precipitation 05/28/2019 11:08 AM 05/28/2019 11:15 AM 0.000 0.000 0.000 0.000 0.000 Not Reported Not Reported
07/12/2019 08:18 PM 82.22 61.70 46.94 91.04 53.96 29.0 Not Reported 1.79 N 0.45 NW 2.91 N No 0.000 No Precipitation 05/28/2019 11:08 AM 05/28/2019 11:15 AM 0.000 0.000 0.000 0.000 0.000 Not Reported Not Reported
07/12/2019 08:33 PM 82.22 61.34 46.04 91.04 53.96 28.0 Not Reported 1.79 NW 0.00 E 4.92 NE No 0.000 No Precipitation 05/28/2019 11:08 AM 05/28/2019 11:15 AM 0.000 0.000 0.000 0.000 0.000 Not Reported Not Reported
07/12/2019 08:48 PM 82.22 62.06 48.02 91.04 53.96 30.0 Not Reported 0.22 NE 0.00 W 4.25 NE No 0.000 No Precipitation 05/28/2019 11:08 AM 05/28/2019 11:15 AM 0.000 0.000 0.000 0.000 0.000 Not Reported Not Reported
07/12/2019 09:03 PM 81.86 60.98 45.86 91.04 53.96 28.0 Not Reported 2.24 NW 4.25 NW 1.57 NE No 0.000 No Precipitation 05/28/2019 11:08 AM 05/28/2019 11:15 AM 0.000 0.000 0.000 0.000 0.000 Not Reported Not Reported
07/12/2019 09:18 PM 80.42 60.62 45.86 91.04 53.96 29.0 Not Reported 1.57 NW 2.01 NW 4.92 N No 0.000 No Precipitation 05/28/2019 11:08 AM 05/28/2019 11:15 AM 0.000 0.000 0.000 0.000 0.000 Not Reported Not Reported
07/12/2019 09:33 PM 79.16 61.70 49.64 91.04 53.96 35.0 Not Reported 2.24 N 2.01 NE 4.25 N No 0.000 No Precipitation 05/28/2019 11:08 AM 05/28/2019 11:15 AM 0.000 0.000 0.000 0.000 0.000 Not Reported Not Reported
07/12/2019 09:48 PM 77.72 61.52 50.72 91.04 53.96 38.0 Not Reported 2.46 N 2.01 N 5.37 NE No 0.000 No Precipitation 05/28/2019 11:08 AM 05/28/2019 11:15 AM 0.000 0.000 0.000 0.000 0.000 Not Reported Not Reported
07/12/2019 10:03 PM 76.28 61.34 51.26 91.04 53.96 41.0 Not Reported 3.13 N 1.79 W 4.70 N No 0.000 No Precipitation 05/28/2019 11:08 AM 05/28/2019 11:15 AM 0.000 0.000 0.000 0.000 0.000 Not Reported Not Reported
07/12/2019 10:18 PM 75.74 61.34 51.62 91.04 53.96 42.0 Not Reported 1.79 W 2.24 NW 4.25 N No 0.000 No Precipitation 05/28/2019 11:08 AM 05/28/2019 11:15 AM 0.000 0.000 0.000 0.000 0.000 Not Reported Not Reported
07/12/2019 10:33 PM 75.20 60.98 51.26 91.04 53.96 43.0 Not Reported 0.00 NW 1.12 NE 3.36 NW No 0.000 No Precipitation 05/28/2019 11:08 AM 05/28/2019 11:15 AM 0.000 0.000 0.000 0.000 0.000 Not Reported Not Reported
07/12/2019 10:48 PM 74.12 60.26 50.72 91.04 53.96 43.0 Not Reported 1.79 N 2.01 NW 4.25 N No 0.000 No Precipitation 05/28/2019 11:08 AM 05/28/2019 11:15 AM 0.000 0.000 0.000 0.000 0.000 Not Reported Not Reported
07/12/2019 11:03 PM 72.86 59.90 51.08 91.04 53.96 46.0 Not Reported 0.45 S 0.67 S 2.24 W No 0.000 No Precipitation 05/28/2019 11:08 AM 05/28/2019 11:15 AM 0.000 0.000 0.000 0.000 0.000 Not Reported Not Reported
07/12/2019 11:18 PM 71.06 59.36 51.08 91.04 53.96 49.0 Not Reported 0.22 S 0.45 SE 1.12 W No 0.000 No Precipitation 05/28/2019 11:08 AM 05/28/2019 11:15 AM 0.000 0.000 0.000 0.000 0.000 Not Reported Not Reported
07/12/2019 11:33 PM 70.16 58.82 51.08 91.04 53.96 50.0 Not Reported 0.67 SE 0.00 N 0.89 SW No 0.000 No Precipitation 05/28/2019 11:08 AM 05/28/2019 11:15 AM 0.000 0.000 0.000 0.000 0.000 Not Reported Not Reported
07/12/2019 11:48 PM 69.44 58.64 51.08 91.04 53.96 52.0 Not Reported 0.22 SE 0.00 SE 1.34 E No 0.000 No Precipitation 05/28/2019 11:08 AM 05/28/2019 11:15 AM 0.000 0.000 0.000 0.000 0.000 Not Reported Not Reported